Maryland METAR Reports


Distance/Direction noted is from Ellicott City, MD as the crow flies

KCBE - Cumberland - 118 miles WNW
Updated: Fri, 10/24/2014 11:58 PM
Clear
Clear
 Wind from calm
Wind: Calm
Temperature: 45°F
Dew Point: 39°F
Humidity: 81%
Barometer: 30.05 inHg
Clouds: Clear
Visibility: 10 miles
2014/10/25 03:58 KCBE 250358Z AUTO 00000KT 10SM CLR 07/04 A3005 RMK AO1
KHGR - Hagerstown - 57 miles NW
Updated: Fri, 10/24/2014 11:53 PM
Clear
Clear
 Wind from SSW
Wind: SSW 5 mph
Temperature: 52°F
Dew Point: 37°F
Humidity: 58%
Barometer: 29.98 inHg
Clouds: Clear
Visibility: 10 miles
2014/10/25 03:53 KHGR 250353Z AUTO 21004KT 10SM CLR 11/03 A2998 RMK AO2 SLP160 T01060028
 
KFDK - Frederick - 34 miles NW
Updated: Fri, 10/24/2014 11:55 PM
Clear
Clear
 Wind from calm
Wind: Calm
Temperature: 54°F
Dew Point: 37°F
Humidity: 54%
Barometer: 29.99 inHg
Clouds: Clear
Visibility: 10 miles
2014/10/25 03:55 KFDK 250355Z AUTO 00000KT 10SM CLR 12/03 A2999 RMK AO2 LTG DSNT E
KGAI - Gaithersburg - 26 miles SW
Updated: Fri, 10/24/2014 11:55 PM
Clear
Clear
 Wind from WNW
Wind: WNW 8 mph
Temperature: 50°F
Wind Chill: 47°F
Dew Point: 36°F
Humidity: 58%
Barometer: 30.00 inHg
Clouds: Clear
Visibility: 10 miles
2014/10/25 03:55 KGAI 250355Z 30007KT 10SM CLR 10/02 A3000 RMK AO1
 
KBWI - BWI Airport - 15 miles SE
Updated: Fri, 10/24/2014 11:54 PM
Partly Cloudy
Partly Cloudy
 Wind from W
Wind: W 7 mph
Temperature: 50°F
Wind Chill: 47°F
Dew Point: 37°F
Humidity: 62%
Barometer: 29.94 inHg
Clouds: Partly Cloudy
Visibility: 10 miles
Cloud Details: Partly Cloudy 25000 ft
2014/10/25 03:54 KBWI 250354Z 28006KT 10SM SCT250 10/03 A2994 RMK AO2 SLP137 T01000028
KNAK - Annapolis - 32 miles SSE
Updated: Fri, 10/24/2014 11:54 PM
Clear
Clear
 Wind from WNW
Wind: WNW 6 mph
Temperature: 55°F
Dew Point: 37°F
Humidity: 51%
Barometer: 29.93 inHg
Clouds: Clear
Visibility: 10 miles
2014/10/25 03:54 KNAK 250354Z AUTO 29005KT 10SM CLR 13/03 A2993 RMK AO2 SLP138 T01280028
 
KESN - Easton - 63 miles SE
Updated: Sat, 10/25/2014 12:11 AM
Clear
Clear
 Wind from NW
Wind: NW 3 mph
Temperature: 54°F
Dew Point: 43°F
Humidity: 67%
Barometer: 29.97 inHg
Clouds: Clear
Visibility: 10 miles
2014/10/25 04:11 KESN 250411Z AUTO 32003KT 10SM CLR 12/06 A2997 RMK AO2 T01240058
KSBY - Salisbury - 112 miles SE
Updated: Fri, 10/24/2014 11:54 PM
Clear
Clear
 Wind from WNW
Wind: WNW 8 mph
Temperature: 55°F
Dew Point: 43°F
Humidity: 63%
Barometer: 29.92 inHg
Clouds: Clear
Visibility: 10 miles
2014/10/25 03:54 KSBY 250354Z AUTO 30007KT 10SM CLR 13/06 A2992 RMK AO2 SLP133 T01330056